Time;durP1;ratioP1;P1;durP2;ratioP2;P2;SDS_P1;SDS_P2;PMS_P1;PMS_P2;Temp;Humidity;BMP_temperature;BMP_pressure;BME280_temperature;BME280_humidity;BME280_pressure;Samples;Min_cycle;Max_cycle;Signal;HPM_P1;HPM_P2
2023/02/01 00:01:40;;;;;;;16.60;3.33;;;;;;;1.92;100.00;100146.84;5020180;28;20042;-78
2023/02/01 00:04:06;;;;;;;20.03;2.77;;;;;;;1.81;100.00;100156.44;5023549;28;20299;-77
2023/02/01 00:06:31;;;;;;;19.10;3.47;;;;;;;1.95;100.00;100175.59;5009141;28;20037;-76
2023/02/01 00:08:56;;;;;;;20.73;3.10;;;;;;;2.00;100.00;100178.69;5025906;28;20033;-77
2023/02/01 00:11:23;;;;;;;41.20;5.93;;;;;;;2.23;100.00;100209.31;5025539;28;20045;-76
2023/02/01 00:13:49;;;;;;;23.05;5.15;;;;;;;2.38;100.00;100217.78;5021149;28;20021;-76
2023/02/01 00:16:21;;;;;;;46.45;5.85;;;;;;;2.42;100.00;100229.75;5012990;28;20784;-76
2023/02/01 00:18:48;;;;;;;52.60;9.88;;;;;;;2.70;100.00;100228.38;5019986;28;20116;-77
2023/02/01 00:21:15;;;;;;;34.45;5.43;;;;;;;2.69;100.00;100242.50;5020970;28;20501;-76
2023/02/01 00:23:41;;;;;;;33.80;4.78;;;;;;;2.68;100.00;100229.44;5015919;28;20129;-77
2023/02/01 00:26:12;;;;;;;23.70;3.92;;;;;;;2.67;100.00;100219.84;5017293;28;20104;-76
2023/02/01 00:28:38;;;;;;;28.58;4.28;;;;;;;2.69;100.00;100215.28;5019145;28;20048;-77
2023/02/01 00:31:04;;;;;;;25.42;4.80;;;;;;;2.65;100.00;100193.63;5026189;28;20021;-76
2023/02/01 00:33:30;;;;;;;30.23;5.85;;;;;;;2.75;100.00;100204.25;5023064;28;20033;-77
2023/02/01 00:36:07;;;;;;;18.85;5.13;;;;;;;2.74;100.00;100213.97;5014880;28;20037;-76
2023/02/01 00:38:36;;;;;;;31.85;5.65;;;;;;;2.85;100.00;100218.34;4997292;28;20176;-76
2023/02/01 00:41:03;;;;;;;30.17;5.05;;;;;;;2.85;100.00;100221.00;5021915;28;20028;-74
2023/02/01 00:43:31;;;;;;;32.13;5.30;;;;;;;2.91;100.00;100231.06;5020047;28;20111;-73
2023/02/01 00:45:56;;;;;;;28.13;4.90;;;;;;;3.00;100.00;100233.88;5025253;28;20068;-73
2023/02/01 00:48:22;;;;;;;40.30;6.10;;;;;;;3.09;100.00;100239.25;5008726;28;20060;-76
2023/02/01 00:50:47;;;;;;;32.97;5.50;;;;;;;3.19;100.00;100239.31;5008394;28;20277;-76
2023/02/01 00:53:13;;;;;;;24.33;4.97;;;;;;;3.16;100.00;100223.72;5020662;28;20032;-76
2023/02/01 00:55:39;;;;;;;31.70;6.57;;;;;;;3.21;100.00;100224.22;5018069;28;20026;-77
2023/02/01 00:58:05;;;;;;;35.90;6.53;;;;;;;3.26;100.00;100219.38;5006684;28;20025;-73
2023/02/01 01:00:32;;;;;;;28.83;6.40;;;;;;;3.34;100.00;100201.09;5021367;28;20041;-76
2023/02/01 01:02:58;;;;;;;40.53;7.00;;;;;;;3.34;100.00;100179.16;5021493;28;20037;-77
2023/02/01 01:05:23;;;;;;;31.55;5.50;;;;;;;3.41;100.00;100180.31;5003084;28;20014;-76
2023/02/01 01:07:49;;;;;;;25.27;6.13;;;;;;;3.37;100.00;100160.41;5021644;28;20454;-75
2023/02/01 01:10:15;;;;;;;35.53;5.82;;;;;;;3.40;100.00;100149.63;5006177;28;20907;-76
2023/02/01 01:12:40;;;;;;;34.05;6.72;;;;;;;3.43;100.00;100130.03;4997547;28;20038;-77
2023/02/01 01:15:07;;;;;;;36.83;5.90;;;;;;;3.42;100.00;100131.00;5020328;28;20511;-77
2023/02/01 01:17:32;;;;;;;41.20;9.35;;;;;;;3.51;100.00;100102.03;5019619;28;20038;-74
2023/02/01 01:19:57;;;;;;;34.83;7.47;;;;;;;3.38;100.00;100070.56;5024122;28;20025;-75
2023/02/01 01:22:23;;;;;;;33.00;6.67;;;;;;;3.50;100.00;100073.13;5024671;28;21052;-78
2023/02/01 01:24:48;;;;;;;37.07;5.67;;;;;;;3.59;100.00;100067.88;5027056;28;20486;-78
2023/02/01 01:27:14;;;;;;;35.63;5.17;;;;;;;3.59;100.00;100062.59;5010507;28;20284;-75
2023/02/01 01:29:39;;;;;;;22.83;4.57;;;;;;;3.64;100.00;100051.63;5016465;28;20026;-77
2023/02/01 01:32:04;;;;;;;34.63;5.53;;;;;;;3.62;100.00;100034.25;5013097;28;20152;-77
2023/02/01 01:34:30;;;;;;;20.83;5.47;;;;;;;3.63;100.00;100031.50;5011469;28;20285;-76
2023/02/01 01:36:55;;;;;;;33.60;6.97;;;;;;;3.59;100.00;100014.25;5003898;28;20056;-76
2023/02/01 01:39:20;;;;;;;35.92;6.22;;;;;;;3.51;100.00;100008.81;5016123;28;20033;-75
2023/02/01 01:41:46;;;;;;;30.57;6.13;;;;;;;3.55;100.00;100018.13;5027571;28;20087;-76
2023/02/01 01:45:13;;;;;;;28.75;6.93;;;;;;;3.61;100.00;100024.69;5028196;28;20033;-77
2023/02/01 01:47:46;;;;;;;36.15;5.20;;;;;;;3.61;100.00;100020.25;4958978;28;20035;-75
2023/02/01 01:50:18;;;;;;;33.80;7.55;;;;;;;3.72;100.00;100004.28;5018701;28;20490;-76
2023/02/01 01:52:48;;;;;;;42.80;5.53;;;;;;;3.65;100.00;99982.00;4998409;28;20115;-78
2023/02/01 01:55:16;;;;;;;35.33;6.22;;;;;;;3.63;100.00;99972.56;5027156;28;20125;-78
2023/02/01 01:57:49;;;;;;;31.00;7.32;;;;;;;3.69;100.00;99961.47;5018558;28;20032;-75
2023/02/01 02:00:19;;;;;;;35.50;6.30;;;;;;;3.71;100.00;99939.22;5029250;28;20037;-77
2023/02/01 02:02:47;;;;;;;33.45;8.73;;;;;;;3.69;100.00;99924.50;5014517;28;20029;-76
2023/02/01 02:05:15;;;;;;;42.55;6.20;;;;;;;3.67;100.00;99942.28;5022787;28;20075;-77
2023/02/01 02:07:45;;;;;;;30.13;5.15;;;;;;;3.86;100.00;99925.63;5022105;28;20073;-75
2023/02/01 02:10:12;;;;;;;32.05;5.72;;;;;;;3.75;100.00;99918.69;5026502;28;20037;-77
2023/02/01 02:12:43;;;;;;;30.08;6.57;;;;;;;3.80;100.00;99912.00;5004552;28;20385;-79
2023/02/01 02:15:11;;;;;;;36.88;6.35;;;;;;;3.74;100.00;99894.06;5002690;28;20068;-76
2023/02/01 02:18:05;;;;;;;27.08;4.35;;;;;;;3.74;100.00;99886.16;5018186;28;20033;-78
2023/02/01 02:21:10;;;;;;;31.67;4.75;;;;;;;3.69;100.00;99885.75;5031663;28;20033;-75
2023/02/01 02:24:05;;;;;;;37.40;6.15;;;;;;;3.70;100.00;99879.50;5016867;28;20064;-77
2023/02/01 02:26:56;;;;;;;22.30;4.82;;;;;;;3.71;100.00;99878.50;5014525;28;20056;-76
2023/02/01 02:29:51;;;;;;;34.13;5.13;;;;;;;3.83;100.00;99870.47;5013083;28;20120;-79
2023/02/01 02:32:39;;;;;;;33.40;5.28;;;;;;;3.83;100.00;99854.63;5015803;28;20116;-78
2023/02/01 02:35:33;;;;;;;28.48;4.60;;;;;;;3.77;100.00;99848.94;5013400;28;20053;-77
2023/02/01 02:38:16;;;;;;;27.05;5.47;;;;;;;3.71;100.00;99869.78;5001858;28;20033;-77
2023/02/01 02:40:49;;;;;;;42.05;8.00;;;;;;;3.79;100.00;99889.22;5018472;28;20050;-77
2023/02/01 02:49:39;;;;;;;36.15;5.90;;;;;;;3.69;100.00;99887.56;5027851;28;20056;-78
2023/02/01 02:55:05;;;;;;;35.78;7.65;;;;;;;3.72;100.00;99909.25;5018022;28;20519;-78
2023/02/01 03:05:53;;;;;;;19.90;4.05;;;;;;;3.99;100.00;99931.47;5021933;28;20030;-77
2023/02/01 03:08:20;;;;;;;;;;;;;;;3.94;100.00;99923.97;5003157;28;20010;-77
2023/02/01 03:11:06;;;;;;;43.72;6.47;;;;;;;3.95;100.00;99919.50;5014289;28;20389;-77
2023/02/01 03:13:59;;;;;;;33.90;6.50;;;;;;;3.98;100.00;99928.00;4998458;28;20148;-76
2023/02/01 03:16:27;;;;;;;48.88;7.15;;;;;;;3.98;100.00;99940.34;5022591;28;20076;-78
2023/02/01 03:19:03;;;;;;;38.85;7.38;;;;;;;3.99;100.00;99929.66;5004770;28;20501;-77
2023/02/01 03:22:03;;;;;;;49.15;10.15;;;;;;;4.01;100.00;99937.44;4994308;28;20565;-76
2023/02/01 03:24:33;;;;;;;32.65;6.43;;;;;;;4.02;100.00;99923.25;4998479;28;20042;-78
2023/02/01 03:27:11;;;;;;;39.22;8.77;;;;;;;3.96;100.00;99926.47;5013954;28;20061;-76
2023/02/01 03:29:46;;;;;;;32.17;6.40;;;;;;;4.02;100.00;99917.97;5027310;28;20041;-77
2023/02/01 03:32:12;;;;;;;27.95;4.60;;;;;;;4.04;100.00;99913.38;5024379;28;20037;-76
2023/02/01 03:34:37;;;;;;;46.00;7.75;;;;;;;4.07;100.00;99913.09;4994041;28;20522;-78
2023/02/01 03:37:08;;;;;;;39.77;9.03;;;;;;;4.10;100.00;99914.66;5002142;28;20024;-77
2023/02/01 03:39:49;;;;;;;38.45;6.53;;;;;;;4.07;100.00;99899.88;5007354;28;20498;-77
2023/02/01 03:42:21;;;;;;;49.95;6.13;;;;;;;4.13;100.00;99901.13;4998122;28;20091;-77
2023/02/01 03:45:06;;;;;;;36.65;7.10;;;;;;;4.11;100.00;99897.81;5017692;28;20042;-77
2023/02/01 03:47:37;;;;;;;29.50;6.95;;;;;;;4.15;100.00;99905.31;5005508;28;20040;-77
2023/02/01 03:50:18;;;;;;;33.17;6.72;;;;;;;4.09;100.00;99895.28;5009141;28;20025;-77
2023/02/01 03:53:08;;;;;;;34.85;7.78;;;;;;;4.12;100.00;99902.09;5000461;28;20026;-78
2023/02/01 03:55:35;;;;;;;45.22;7.55;;;;;;;4.17;100.00;99906.00;5000455;28;20030;-77
2023/02/01 03:58:03;;;;;;;38.03;7.22;;;;;;;4.10;100.00;99906.72;5017922;28;20021;-77
2023/02/01 04:00:29;;;;;;;38.78;7.95;;;;;;;4.04;100.00;99912.56;4999062;28;20060;-78
2023/02/01 04:02:56;;;;;;;46.10;9.13;;;;;;;4.07;100.00;99926.28;5019696;28;20132;-79
2023/02/01 04:05:22;;;;;;;41.13;7.87;;;;;;;4.06;100.00;99940.50;5023560;28;20089;-78
2023/02/01 04:07:56;;;;;;;49.75;6.80;;;;;;;4.03;100.00;99935.50;5012708;28;20025;-79
2023/02/01 04:10:21;;;;;;;36.70;6.10;;;;;;;4.07;100.00;99944.78;5021887;28;20041;-78
2023/02/01 04:12:47;;;;;;;51.92;8.07;;;;;;;4.10;100.00;99947.16;5020870;28;20026;-77
2023/02/01 04:15:12;;;;;;;39.87;8.47;;;;;;;4.06;100.00;99937.84;5014764;28;20285;-76
2023/02/01 04:17:37;;;;;;;34.03;7.27;;;;;;;4.02;100.00;99939.09;5019926;28;20100;-76
2023/02/01 04:20:04;;;;;;;41.93;5.83;;;;;;;4.01;100.00;99950.66;4998874;28;20068;-77
2023/02/01 04:22:30;;;;;;;30.20;6.05;;;;;;;3.94;100.00;99997.91;5012494;28;20813;-78
2023/02/01 04:24:55;;;;;;;23.55;4.07;;;;;;;3.71;100.00;99986.75;5015638;28;20035;-77
2023/02/01 04:27:25;;;;;;;26.57;5.30;;;;;;;3.66;100.00;100019.84;5020755;28;20088;-76
2023/02/01 04:29:50;;;;;;;26.38;4.97;;;;;;;3.58;100.00;100045.09;5025591;28;20400;-79
2023/02/01 04:32:16;;;;;;;24.63;5.07;;;;;;;3.55;100.00;100060.34;5018116;28;20029;-77
2023/02/01 04:34:42;;;;;;;18.90;2.95;;;;;;;3.53;100.00;100073.69;5013786;28;20534;-76
2023/02/01 04:37:07;;;;;;;15.20;2.13;;;;;;;3.30;100.00;100045.81;5015359;28;20037;-77
2023/02/01 04:39:33;;;;;;;5.28;1.05;;;;;;;3.18;100.00;100031.88;5024064;28;20045;-78
2023/02/01 04:41:58;;;;;;;9.10;2.53;;;;;;;3.00;100.00;100026.41;5008990;28;20032;-77
2023/02/01 04:44:24;;;;;;;14.67;2.37;;;;;;;2.89;100.00;100032.56;5019814;28;20065;-78
2023/02/01 04:46:49;;;;;;;10.53;1.43;;;;;;;2.85;100.00;100040.88;5026866;28;20292;-77
2023/02/01 04:49:14;;;;;;;7.83;1.67;;;;;;;2.82;100.00;100036.69;5010203;28;20076;-77
2023/02/01 04:51:40;;;;;;;9.80;1.52;;;;;;;2.78;100.00;100030.00;5016224;28;20060;-76
2023/02/01 04:54:06;;;;;;;7.63;1.95;;;;;;;2.71;100.00;100044.69;5015009;28;20459;-77
2023/02/01 04:56:31;;;;;;;13.40;2.25;;;;;;;2.69;100.00;100060.63;5015047;28;20030;-77
2023/02/01 04:58:57;;;;;;;17.23;2.03;;;;;;;2.79;100.00;100073.88;5017120;28;20124;-79
2023/02/01 05:01:24;;;;;;;18.08;2.67;;;;;;;2.79;100.00;100070.41;5013643;28;20035;-77
2023/02/01 05:03:50;;;;;;;13.55;1.70;;;;;;;2.72;100.00;100065.66;5018775;28;20040;-78
2023/02/01 05:06:15;;;;;;;14.18;2.28;;;;;;;2.75;100.00;100059.28;5011196;28;20021;-77
2023/02/01 05:08:41;;;;;;;10.57;1.40;;;;;;;2.74;100.00;100069.00;5008346;28;20048;-76
2023/02/01 05:11:06;;;;;;;7.63;1.40;;;;;;;2.64;100.00;100068.06;5014610;28;20036;-77
2023/02/01 05:13:50;;;;;;;13.50;1.63;;;;;;;2.63;100.00;100078.75;4995734;28;20084;-77
2023/02/01 05:16:16;;;;;;;10.88;1.83;;;;;;;2.68;100.00;100092.38;4999017;28;20593;-77
2023/02/01 05:18:41;;;;;;;8.20;1.70;;;;;;;2.67;100.00;100095.97;5025463;28;20105;-77
2023/02/01 05:21:07;;;;;;;8.65;1.50;;;;;;;2.68;100.00;100098.50;5025126;28;20390;-77
2023/02/01 05:23:32;;;;;;;6.43;1.40;;;;;;;2.67;100.00;100101.25;5025311;28;20497;-76
2023/02/01 05:26:01;;;;;;;8.43;1.90;;;;;;;2.62;100.00;100099.03;5020639;28;20033;-76
2023/02/01 05:28:27;;;;;;;11.32;1.67;;;;;;;2.65;100.00;100105.84;5017358;28;20037;-78
2023/02/01 05:30:53;;;;;;;9.95;1.77;;;;;;;2.62;100.00;100098.16;5021653;28;20037;-77
2023/02/01 05:33:19;;;;;;;8.73;2.08;;;;;;;2.59;100.00;100099.25;5019517;28;20033;-77
2023/02/01 05:35:44;;;;;;;20.13;3.70;;;;;;;2.67;100.00;100107.38;4999577;28;20042;-78
2023/02/01 05:38:09;;;;;;;12.47;3.63;;;;;;;2.69;100.00;100104.59;5009351;28;20505;-77
2023/02/01 05:40:35;;;;;;;8.17;1.80;;;;;;;2.64;100.00;100096.22;5013184;28;20774;-77
2023/02/01 05:43:00;;;;;;;11.73;2.93;;;;;;;2.64;100.00;100097.06;5023024;28;20180;-77
2023/02/01 05:45:25;;;;;;;12.40;1.90;;;;;;;2.65;100.00;100092.66;5007551;28;20072;-77
2023/02/01 05:47:51;;;;;;;14.67;2.13;;;;;;;2.70;100.00;100095.75;5017236;28;20044;-77
2023/02/01 05:50:16;;;;;;;20.23;2.75;;;;;;;2.68;100.00;100095.03;4998425;28;20037;-78
2023/02/01 05:52:42;;;;;;;9.68;2.65;;;;;;;2.69;100.00;100094.03;5015116;28;20730;-78
2023/02/01 05:55:07;;;;;;;9.50;2.42;;;;;;;2.67;100.00;100093.34;5021892;28;20691;-77
2023/02/01 05:57:33;;;;;;;17.85;4.00;;;;;;;2.73;100.00;100092.84;5026010;28;20115;-78
2023/02/01 05:59:58;;;;;;;13.15;2.72;;;;;;;2.72;100.00;100083.28;5007968;28;20041;-78
2023/02/01 06:02:24;;;;;;;10.97;3.47;;;;;;;2.76;100.00;100087.28;5003640;28;20030;-78
2023/02/01 06:04:50;;;;;;;14.32;2.63;;;;;;;2.81;100.00;100079.00;5014965;28;20148;-77
2023/02/01 06:07:15;;;;;;;15.02;2.28;;;;;;;2.84;100.00;100076.13;5019723;28;20103;-76
2023/02/01 06:09:41;;;;;;;15.40;3.45;;;;;;;2.86;100.00;100075.03;5001028;28;20116;-79
2023/02/01 06:12:06;;;;;;;19.52;3.53;;;;;;;2.82;100.00;100056.97;5007543;28;20128;-78
2023/02/01 06:14:32;;;;;;;12.10;2.28;;;;;;;2.86;100.00;100050.47;5024556;28;20030;-79
2023/02/01 06:16:57;;;;;;;11.93;2.15;;;;;;;2.87;100.00;100058.22;5028663;28;20041;-80
2023/02/01 06:19:23;;;;;;;15.50;2.13;;;;;;;2.91;100.00;100054.38;5008979;28;20084;-78
2023/02/01 06:21:48;;;;;;;14.55;2.03;;;;;;;2.88;100.00;100049.38;5012054;28;20038;-77
2023/02/01 06:24:14;;;;;;;16.83;3.47;;;;;;;2.84;100.00;100039.22;5002102;28;20689;-79
2023/02/01 06:26:39;;;;;;;9.90;2.38;;;;;;;2.85;100.00;100038.25;5013169;28;20046;-75
2023/02/01 06:29:12;;;;;;;11.80;2.92;;;;;;;2.81;100.00;100027.13;5003864;28;20049;-76
2023/02/01 06:31:38;;;;;;;16.55;4.57;;;;;;;2.87;100.00;100028.41;5014456;28;20535;-79
2023/02/01 06:34:03;;;;;;;14.70;4.05;;;;;;;2.85;100.00;100030.34;5004605;28;20104;-77
2023/02/01 06:36:29;;;;;;;16.70;3.13;;;;;;;2.86;100.00;100038.13;5011590;28;20138;-78
2023/02/01 06:38:56;;;;;;;13.00;1.90;;;;;;;2.83;100.00;100033.09;5019106;28;20026;-78
2023/02/01 06:41:22;;;;;;;15.18;2.60;;;;;;;2.84;100.00;100034.78;5011028;28;20057;-78
2023/02/01 06:43:47;;;;;;;18.48;3.13;;;;;;;2.86;100.00;100035.47;5027974;23;20042;-75
2023/02/01 06:46:13;;;;;;;9.90;1.27;;;;;;;2.89;100.00;100032.56;5015924;28;20045;-74
2023/02/01 06:48:39;;;;;;;14.23;2.78;;;;;;;2.88;100.00;100030.91;5011380;28;20037;-75
2023/02/01 06:51:05;;;;;;;18.08;2.50;;;;;;;2.85;100.00;100022.41;4996370;28;20030;-79
2023/02/01 06:53:30;;;;;;;13.32;2.15;;;;;;;2.86;100.00;100026.75;4991710;28;20157;-77
2023/02/01 06:56:01;;;;;;;14.52;2.65;;;;;;;2.90;100.00;100036.91;4966356;28;20022;-77
2023/02/01 06:58:32;;;;;;;16.90;2.60;;;;;;;2.86;100.00;100030.22;4968516;28;20125;-74
2023/02/01 07:00:58;;;;;;;13.90;2.65;;;;;;;2.86;100.00;100032.84;4982755;28;20089;-74
2023/02/01 07:03:23;;;;;;;;;;;;;;;2.90;100.00;100029.00;4982609;28;20034;-74
2023/02/01 07:05:48;;;;;;;17.52;3.28;;;;;;;2.87;100.00;100021.31;4981360;28;19922;-77
2023/02/01 07:08:14;;;;;;;12.13;3.03;;;;;;;2.89;100.00;100021.22;4986344;28;20031;-74
2023/02/01 07:10:39;;;;;;;26.23;3.22;;;;;;;2.96;100.00;100028.44;4964045;28;20324;-78
2023/02/01 07:13:05;;;;;;;18.23;2.93;;;;;;;2.93;100.00;100023.44;4968766;28;20038;-79
2023/02/01 07:15:30;;;;;;;15.97;3.53;;;;;;;2.95;100.00;100025.97;4964375;28;20782;-77
2023/02/01 07:17:56;;;;;;;17.40;2.75;;;;;;;2.96;100.00;100009.16;4982463;28;20399;-75
2023/02/01 07:20:21;;;;;;;18.67;2.72;;;;;;;3.00;100.00;100022.91;4969220;28;20023;-76
2023/02/01 07:22:47;;;;;;;19.30;4.18;;;;;;;2.94;100.00;100019.00;4981444;28;20043;-75
2023/02/01 07:25:12;;;;;;;21.47;4.70;;;;;;;2.92;100.00;100011.22;4986553;28;20168;-74
2023/02/01 07:27:37;;;;;;;20.95;4.25;;;;;;;3.04;100.00;100029.59;4986563;28;20133;-74
2023/02/01 07:30:04;;;;;;;23.53;5.60;;;;;;;2.97;100.00;100021.38;4983723;28;20471;-75
2023/02/01 07:32:30;;;;;;;14.23;3.03;;;;;;;2.93;100.00;100023.44;4980026;28;20057;-79
2023/02/01 07:34:56;;;;;;;21.33;5.22;;;;;;;2.95;100.00;100016.25;4981995;28;20033;-77
2023/02/01 07:37:23;;;;;;;20.30;3.88;;;;;;;2.95;100.00;100020.69;4981963;28;20125;-75
2023/02/01 07:39:49;;;;;;;18.05;3.88;;;;;;;3.00;100.00;100033.44;4965321;28;20030;-75
2023/02/01 07:42:15;;;;;;;19.58;3.72;;;;;;;3.05;100.00;100044.47;4985987;28;20030;-79
2023/02/01 07:44:40;;;;;;;31.17;5.07;;;;;;;3.01;100.00;100035.13;4980523;28;20042;-75
2023/02/01 07:47:06;;;;;;;43.95;6.18;;;;;;;3.07;100.00;100046.00;4986278;28;20293;-76
2023/02/01 07:49:31;;;;;;;43.70;4.70;;;;;;;3.10;100.00;100037.00;4964156;28;20041;-76
2023/02/01 07:51:56;;;;;;;31.90;5.63;;;;;;;3.12;100.00;100038.53;4969996;28;20124;-75
2023/02/01 07:54:22;;;;;;;25.90;4.00;;;;;;;3.14;100.00;100038.41;4984404;28;20029;-77
2023/02/01 07:56:47;;;;;;;23.53;4.73;;;;;;;3.24;100.00;100041.91;4982034;28;20077;-74
2023/02/01 07:59:12;;;;;;;26.67;3.90;;;;;;;3.29;100.00;100033.59;4970136;28;20096;-73
2023/02/01 08:01:38;;;;;;;23.33;4.22;;;;;;;3.33;100.00;100035.84;4963679;28;20278;-78
2023/02/01 08:04:03;;;;;;;33.23;5.63;;;;;;;3.37;100.00;100031.97;4985766;28;20535;-75
2023/02/01 08:06:32;;;;;;;31.00;5.25;;;;;;;3.48;100.00;100027.56;4980114;28;20046;-76
2023/02/01 08:08:58;;;;;;;18.83;5.32;;;;;;;3.51;100.00;100014.06;4959460;28;20030;-74
2023/02/01 08:11:25;;;;;;;35.10;5.55;;;;;;;3.69;100.00;100009.81;4980710;28;20030;-74
2023/02/01 08:13:51;;;;;;;31.85;4.93;;;;;;;3.96;100.00;100010.97;4981052;28;20071;-77
2023/02/01 08:16:18;;;;;;;39.58;5.35;;;;;;;3.96;100.00;99989.84;4971317;28;20044;-78
2023/02/01 08:18:45;;;;;;;37.38;6.45;;;;;;;4.06;100.00;99958.16;4976778;28;20031;-77
2023/02/01 08:21:12;;;;;;;;;;;;;;;4.10;100.00;99957.75;4974623;28;20034;-78
2023/02/01 08:23:39;;;;;;;32.60;6.22;;;;;;;4.01;100.00;99940.09;4974136;28;19918;-75
2023/02/01 08:26:11;;;;;;;37.30;6.05;;;;;;;3.97;100.00;99928.13;4958238;28;20406;-78
2023/02/01 08:28:38;;;;;;;19.63;4.30;;;;;;;3.78;100.00;99911.31;4982717;28;20050;-74
2023/02/01 08:31:09;;;;;;;29.27;4.90;;;;;;;3.61;100.00;99924.38;4961350;28;20030;-75
2023/02/01 08:33:37;;;;;;;27.02;4.18;;;;;;;3.55;100.00;99936.31;4976874;28;20117;-78
2023/02/01 08:36:05;;;;;;;16.30;3.22;;;;;;;3.42;100.00;99912.81;4962519;28;20026;-75
2023/02/01 08:38:30;;;;;;;13.70;3.55;;;;;;;3.32;100.00;99927.78;4994774;28;20562;-74
2023/02/01 08:40:56;;;;;;;14.60;3.72;;;;;;;3.32;100.00;99936.53;4958804;28;20122;-76
2023/02/01 08:43:21;;;;;;;14.25;3.33;;;;;;;3.45;100.00;99956.56;4974806;28;20090;-74
2023/02/01 08:45:47;;;;;;;21.60;4.43;;;;;;;3.61;100.00;99967.44;4959343;28;20056;-78
2023/02/01 08:48:12;;;;;;;21.92;3.97;;;;;;;3.67;100.00;99966.06;4963336;28;20368;-73
2023/02/01 08:50:37;;;;;;;17.67;2.87;;;;;;;3.98;100.00;99957.03;4979503;28;20069;-74
2023/02/01 08:53:03;;;;;;;12.17;3.00;;;;;;;4.50;100.00;99947.94;4979262;28;20317;-75
2023/02/01 08:55:28;;;;;;;18.45;5.55;;;;;;;5.04;100.00;99939.25;4979586;28;20557;-73
2023/02/01 08:57:54;;;;;;;25.30;4.97;;;;;;;5.24;100.00;99865.03;4980312;28;20908;-73
2023/02/01 09:00:19;;;;;;;23.93;5.07;;;;;;;5.14;100.00;99806.06;4977343;28;20038;-76
2023/02/01 09:02:45;;;;;;;20.77;3.80;;;;;;;4.88;100.00;99743.31;4978502;28;20095;-76
2023/02/01 09:05:12;;;;;;;16.23;3.08;;;;;;;4.13;100.00;99666.84;4980553;28;20047;-76
2023/02/01 09:07:37;;;;;;;14.68;2.40;;;;;;;3.92;100.00;99663.63;4980499;28;20053;-73
2023/02/01 09:10:04;;;;;;;11.43;2.20;;;;;;;3.78;100.00;99625.34;4976717;28;20035;-73
2023/02/01 09:12:31;;;;;;;12.85;2.15;;;;;;;3.75;100.00;99623.81;4978638;28;21350;-75
2023/02/01 09:14:59;;;;;;;5.80;1.67;;;;;;;3.71;100.00;99617.16;4984381;28;20030;-73
2023/02/01 09:17:25;;;;;;;12.85;2.67;;;;;;;3.89;100.00;99616.41;4971436;28;20049;-74
2023/02/01 09:19:50;;;;;;;6.80;2.33;;;;;;;4.25;100.00;99634.94;4982781;28;20030;-73
2023/02/01 09:22:16;;;;;;;9.13;1.50;;;;;;;4.23;100.00;99577.78;4981044;28;20487;-78
2023/02/01 09:24:41;;;;;;;10.23;1.33;;;;;;;4.23;100.00;99543.44;4995370;28;20484;-73
2023/02/01 09:27:10;;;;;;;8.30;2.40;;;;;;;4.22;100.00;99515.38;4982190;28;20404;-72
2023/02/01 09:29:35;;;;;;;17.63;4.30;;;;;;;4.32;100.00;99519.75;4982009;28;20290;-74
2023/02/01 09:32:00;;;;;;;17.80;3.13;;;;;;;4.50;100.00;99562.84;4984033;28;20036;-77
2023/02/01 09:34:26;;;;;;;25.73;4.97;;;;;;;5.30;100.00;99615.66;4972833;28;20121;-72
2023/02/01 09:36:51;;;;;;;23.37;3.23;;;;;;;5.20;100.00;99577.91;4980799;28;20061;-72
2023/02/01 09:39:16;;;;;;;25.23;5.03;;;;;;;5.24;100.00;99552.78;4980241;28;20340;-74
2023/02/01 09:41:56;;;;;;;32.67;5.20;;;;;;;5.68;100.00;99545.53;4977130;28;20419;-73
2023/02/01 09:44:41;;;;;;;30.38;5.88;;;;;;;6.27;100.00;99534.91;4981625;28;20037;-73
2023/02/01 09:47:15;;;;;;;29.02;5.82;;;;;;;6.65;100.00;99433.66;4977249;28;20097;-73
2023/02/01 09:50:11;;;;;;;22.73;4.68;;;;;;;5.78;100.00;99254.06;4986707;28;20038;-73
2023/02/01 09:52:52;;;;;;;;;;;;;;;5.62;100.00;99312.31;4991006;28;20607;-73
2023/02/01 09:55:51;;;;;;;16.88;4.47;;;;;;;5.39;100.00;99358.00;4989575;28;19940;-73
2023/02/01 09:58:27;;;;;;;28.38;3.83;;;;;;;5.25;100.00;99385.09;4993291;28;20042;-73
2023/02/01 10:00:56;;;;;;;19.40;4.30;;;;;;;5.24;100.00;99421.31;4975508;28;20030;-73
2023/02/01 10:03:26;;;;;;;22.80;4.25;;;;;;;5.49;100.00;99461.91;4976520;28;20030;-73
2023/02/01 10:05:54;;;;;;;28.20;5.38;;;;;;;5.79;100.00;99442.94;4993929;28;20423;-73
2023/02/01 10:08:45;;;;;;;17.58;4.78;;;;;;;6.04;100.00;99444.66;4976221;28;20065;-76
2023/02/01 10:11:24;;;;;;;35.45;4.82;;;;;;;6.26;100.00;99382.19;4992049;28;20054;-74
2023/02/01 10:14:12;;;;;;;31.13;4.07;;;;;;;5.83;100.00;99282.69;4992326;28;20026;-78
2023/02/01 10:16:59;;;;;;;35.03;6.22;;;;;;;5.94;100.00;99303.56;4973610;28;20039;-75
2023/02/01 10:19:33;;;;;;;27.20;3.75;;;;;;;5.96;100.00;99319.31;4992224;28;20102;-76
2023/02/01 10:22:08;;;;;;;22.20;3.60;;;;;;;6.57;100.00;99372.69;4993354;28;20703;-74
2023/02/01 10:24:46;;;;;;;33.20;4.15;;;;;;;6.63;100.00;99285.31;4992182;28;20635;-73
2023/02/01 10:27:32;;;;;;;23.08;4.13;;;;;;;6.90;100.00;99201.75;4992013;28;20041;-75
2023/02/01 10:30:03;;;;;;;22.23;4.88;;;;;;;7.95;100.00;99203.66;4985428;28;20030;-75
2023/02/01 10:32:32;;;;;;;25.73;5.57;;;;;;;8.16;100.00;98978.81;4976507;28;20052;-74
2023/02/01 10:35:12;;;;;;;29.83;4.90;;;;;;;7.83;100.00;98795.97;4976531;28;20022;-74
2023/02/01 10:37:41;;;;;;;21.67;5.28;;;;;;;7.30;100.00;98711.34;4976532;28;20125;-76
2023/02/01 10:40:21;;;;;;;23.50;4.82;;;;;;;7.10;100.00;98747.53;4992771;28;20109;-73
2023/02/01 10:42:49;;;;;;;28.55;4.55;;;;;;;6.79;100.00;98846.75;4977505;28;20073;-73
2023/02/01 10:45:18;;;;;;;21.25;5.07;;;;;;;6.19;100.00;98868.94;4994999;28;20054;-78
2023/02/01 10:47:45;;;;;;;22.35;4.88;;;;;;;6.09;100.00;98991.06;4976872;28;20030;-76
2023/02/01 10:50:25;;;;;;;23.00;3.85;;;;;;;6.12;100.00;99060.41;4992994;28;20042;-74
2023/02/01 10:53:14;;;;;;;24.15;6.25;;;;;;;6.76;100.00;99224.56;4992837;28;20034;-75
2023/02/01 10:55:45;;;;;;;26.58;5.05;;;;;;;6.41;100.00;99085.41;4994251;28;20113;-74
2023/02/01 10:58:19;;;;;;;29.42;5.47;;;;;;;6.30;100.00;99097.25;4994040;28;20069;-74
2023/02/01 11:01:03;;;;;;;27.30;4.22;;;;;;;6.10;100.00;99149.03;4975855;28;20034;-74
2023/02/01 11:03:51;;;;;;;23.67;5.13;;;;;;;6.19;100.00;99259.31;4991169;28;20039;-74
2023/02/01 11:06:19;;;;;;;26.55;5.30;;;;;;;5.92;100.00;99187.16;5002299;28;20446;-75
2023/02/01 11:08:49;;;;;;;25.33;6.05;;;;;;;5.92;100.00;99229.56;4990370;28;20042;-76
2023/02/01 11:11:14;;;;;;;24.83;4.13;;;;;;;5.89;100.00;99255.53;4992122;28;20088;-74
2023/02/01 11:13:41;;;;;;;27.60;4.50;;;;;;;5.76;100.00;99202.25;4990786;28;20109;-73
2023/02/01 11:16:12;;;;;;;19.92;3.20;;;;;;;5.78;100.00;99176.44;4990670;28;20034;-73
2023/02/01 11:18:38;;;;;;;21.80;5.45;;;;;;;5.75;100.00;99164.34;4990614;28;20046;-73
2023/02/01 11:21:05;;;;;;;27.02;4.30;;;;;;;5.75;100.00;99201.44;4990682;28;20042;-76
2023/02/01 11:23:33;;;;;;;22.75;4.10;;;;;;;5.64;100.00;99191.19;4991593;28;20034;-80
2023/02/01 11:26:29;;;;;;;13.82;3.42;;;;;;;5.61;100.00;99170.34;4991271;28;20030;-76
2023/02/01 11:29:11;;;;;;;25.92;3.50;;;;;;;5.67;100.00;99241.19;4973450;28;20503;-73
2023/02/01 11:31:37;;;;;;;17.48;3.72;;;;;;;5.83;100.00;99285.34;4989589;28;20053;-73
2023/02/01 11:34:15;;;;;;;20.48;5.43;;;;;;;5.75;100.00;99317.97;4989251;28;20041;-73
2023/02/01 11:36:41;;;;;;;17.23;3.30;;;;;;;5.78;100.00;99388.31;4990809;28;20488;-73
2023/02/01 11:39:12;;;;;;;25.77;5.30;;;;;;;5.75;100.00;99420.41;4990870;28;20084;-73
2023/02/01 11:42:12;;;;;;;27.92;4.78;;;;;;;5.85;100.00;99464.31;4989175;28;20130;-78
2023/02/01 11:44:43;;;;;;;27.50;5.45;;;;;;;5.87;100.00;99461.47;4989204;28;20125;-77
2023/02/01 11:47:28;;;;;;;23.52;4.10;;;;;;;5.88;100.00;99463.97;4972891;28;20050;-77
2023/02/01 11:50:04;;;;;;;28.60;5.18;;;;;;;5.83;100.00;99461.00;4989094;28;20557;-75
2023/02/01 11:52:45;;;;;;;27.88;5.30;;;;;;;5.63;100.00;99430.50;4989095;28;20049;-76